This is the latest recevied weather packets stored in our database for station/object 9W2UHF-10. If no packets are shown the sender has not sent any weather packets the latest 1 day(s).
| Time | Temp. | Humidity | Pressure | Rain* | Wind** | Luminosity | Snow |
|---|---|---|---|---|---|---|---|
| 1777872823 | 31.67° C | 68% | 1013.3 hPa | - | - | - | - |
| 1777872573 | 31.67° C | 66% | 1013.1 hPa | - | - | - | - |
| 1777871373 | 31.67° C | 68% | 1013.3 hPa | - | - | - | - |
| 1777870443 | 31.11° C | 69% | 1013.9 hPa | - | - | - | - |
| 1777870173 | 31.11° C | 69% | 1013.5 hPa | - | - | - | - |
| 1777868973 | 31.11° C | 69% | 1013.9 hPa | - | - | - | - |
| 1777867773 | 31.11° C | 70% | 1014.1 hPa | - | - | - | - |
| 1777866573 | 31.67° C | 69% | 1013.9 hPa | - | - | - | - |
| 1777865373 | 31.67° C | 69% | 1013.9 hPa | - | - | - | - |
| 1777864172 | 31.11° C | 71% | 1014 hPa | - | - | - | - |
| 1777862972 | 30.56° C | 73% | 1013.9 hPa | - | - | - | - |
| 1777861772 | 30.56° C | 74% | 1013.9 hPa | - | - | - | - |
| 1777860572 | 30° C | 76% | 1013.8 hPa | - | - | - | - |
| 1777859372 | 30° C | 76% | 1013.8 hPa | - | - | - | - |
| 1777858172 | 29.44° C | 75% | 1013.6 hPa | - | - | - | - |
| 1777856972 | 29.44° C | 76% | 1013.4 hPa | - | - | - | - |
| 1777855772 | 29.44° C | 75% | 1013.3 hPa | - | - | - | - |
| 1777854572 | 30° C | 72% | 1013 hPa | - | - | - | - |
| 1777853372 | 30° C | 72% | 1012.5 hPa | - | - | - | - |
| 1777852172 | 30° C | 71% | 1012.1 hPa | - | - | - | - |
| 1777850971 | 30° C | 72% | 1011.7 hPa | - | - | - | - |
| 1777849771 | 30° C | 72% | 1011.5 hPa | - | - | - | - |
| 1777848571 | 30° C | 71% | 1011.5 hPa | - | - | - | - |
| 1777847371 | 30° C | 72% | 1011.2 hPa | - | - | - | - |
| 1777846171 | 30° C | 71% | 1010.9 hPa | - | - | - | - |
* Rain since midnight (hover to see other rain measurements)
** Current wind speed in m/s (hover to see current wind gust speed)